createdAt,value
2022-09-14T00:01:25.306Z,10.20
2022-09-14T00:03:55.858Z,11.40
2022-09-14T00:06:23.080Z,9.10
2022-09-14T00:08:52.489Z,7.93
2022-09-14T00:11:20.102Z,7.30
2022-09-14T00:13:47.970Z,7.60
2022-09-14T00:16:24.291Z,6.17
2022-09-14T00:18:53.097Z,6.27
2022-09-14T00:21:21.585Z,4.77
2022-09-14T00:23:48.611Z,4.53
2022-09-14T00:26:18.165Z,4.33
2022-09-14T00:28:47.575Z,3.87
2022-09-14T00:31:15.630Z,2.60
2022-09-14T00:33:43.920Z,2.60
2022-09-14T00:36:14.139Z,2.30
2022-09-14T00:38:42.044Z,2.10
2022-09-14T00:41:13.148Z,1.93
2022-09-14T00:44:04.395Z,2.77
2022-09-14T00:46:37.769Z,2.50
2022-09-14T00:49:08.917Z,2.43
2022-09-14T00:51:39.860Z,2.50
2022-09-14T00:54:07.737Z,2.33
2022-09-14T00:56:35.021Z,2.63
2022-09-14T00:59:10.548Z,2.70
2022-09-14T01:01:37.915Z,2.70
2022-09-14T01:04:04.941Z,3.20
2022-09-14T01:06:41.493Z,2.50
2022-09-14T01:09:26.950Z,2.20
2022-09-14T01:12:11.163Z,2.67
2022-09-14T01:15:10.155Z,2.50
2022-09-14T01:18:00.429Z,2.37
2022-09-14T01:20:39.802Z,3.27
2022-09-14T01:24:01.318Z,2.80
2022-09-14T01:26:54.939Z,3.53
2022-09-14T01:29:36.499Z,3.13
2022-09-14T01:32:25.786Z,3.57
2022-09-14T01:35:07.787Z,3.43
2022-09-14T01:37:46.175Z,3.33
2022-09-14T01:40:33.448Z,4.07
2022-09-14T01:43:19.858Z,3.10
2022-09-14T01:46:25.894Z,3.30
2022-09-14T01:49:03.173Z,3.70
2022-09-14T01:51:52.214Z,3.60
2022-09-14T01:54:39.307Z,3.30
2022-09-14T01:57:12.419Z,3.50
2022-09-14T01:59:45.337Z,4.00
2022-09-14T02:02:27.758Z,3.83
2022-09-14T02:05:05.324Z,3.50
2022-09-14T02:07:33.094Z,4.50
2022-09-14T02:09:59.882Z,4.27
2022-09-14T02:12:26.819Z,4.27
2022-09-14T02:14:54.691Z,4.57
2022-09-14T02:17:22.480Z,5.10
2022-09-14T02:19:54.097Z,6.10
2022-09-14T02:22:20.904Z,6.50
2022-09-14T02:24:49.131Z,6.20
2022-09-14T02:27:15.938Z,6.40
2022-09-14T02:29:43.026Z,6.97
2022-09-14T02:32:22.455Z,7.17
2022-09-14T02:35:01.446Z,8.40
2022-09-14T02:37:44.701Z,8.90
2022-09-14T02:40:28.770Z,10.03
2022-09-14T02:43:28.039Z,8.70
2022-09-14T02:46:00.539Z,10.50
2022-09-14T02:48:36.741Z,9.53
2022-09-14T02:51:16.049Z,12.00
2022-09-14T02:53:46.341Z,11.70
2022-09-14T02:56:14.598Z,12.07
2022-09-14T02:58:44.888Z,13.47
2022-09-14T03:01:14.555Z,13.00
2022-09-14T03:03:41.456Z,11.20
2022-09-14T03:06:08.478Z,12.70
2022-09-14T03:08:35.878Z,13.27
2022-09-14T03:11:03.189Z,13.93
2022-09-14T03:13:30.017Z,14.47
2022-09-14T03:15:56.919Z,15.70
2022-09-14T03:18:23.701Z,15.23
2022-09-14T03:20:50.493Z,15.07
2022-09-14T03:23:17.348Z,14.87
2022-09-14T03:25:44.863Z,14.13
2022-09-14T03:28:12.705Z,14.60
2022-09-14T03:30:39.525Z,14.73
2022-09-14T03:33:06.709Z,15.77
2022-09-14T03:35:33.554Z,15.13
2022-09-14T03:38:03.282Z,15.80
2022-09-14T03:40:30.603Z,15.43
2022-09-14T03:42:58.135Z,15.40
2022-09-14T03:45:24.902Z,15.70
2022-09-14T03:47:51.673Z,14.40
2022-09-14T03:50:19.332Z,16.57
2022-09-14T03:52:46.394Z,15.67
2022-09-14T03:55:13.302Z,14.70
2022-09-14T03:57:40.107Z,15.47
2022-09-14T04:00:08.652Z,15.20
2022-09-14T04:02:35.717Z,15.47
2022-09-14T04:05:02.622Z,14.43
2022-09-14T04:07:29.466Z,14.20
2022-09-14T04:09:56.316Z,15.27
2022-09-14T04:12:23.425Z,15.10
2022-09-14T04:14:50.644Z,14.77
2022-09-14T04:17:17.663Z,13.87
2022-09-14T04:19:44.546Z,14.40
2022-09-14T04:22:11.401Z,14.67
2022-09-14T04:24:38.304Z,14.33
2022-09-14T04:27:05.093Z,14.30
2022-09-14T04:29:32.048Z,13.87
2022-09-14T04:31:58.869Z,12.73
2022-09-14T04:34:26.047Z,13.80
2022-09-14T04:36:53.018Z,12.57
2022-09-14T04:39:20.166Z,12.50
2022-09-14T04:41:47.208Z,13.70
2022-09-14T04:44:14.405Z,12.90
2022-09-14T04:46:46.537Z,13.83
2022-09-14T04:49:14.312Z,12.90
2022-09-14T04:51:41.118Z,13.33
2022-09-14T04:54:07.988Z,13.40
2022-09-14T04:56:36.886Z,13.13
2022-09-14T04:59:04.857Z,13.10
2022-09-14T05:01:35.578Z,13.20
2022-09-14T05:04:03.615Z,12.20
2022-09-14T05:06:32.719Z,12.40
2022-09-14T05:09:01.055Z,13.50
2022-09-14T05:11:31.145Z,13.03
2022-09-14T05:13:59.295Z,12.47
2022-09-14T05:16:29.014Z,12.23
2022-09-14T05:18:58.849Z,12.37
2022-09-14T05:21:26.016Z,13.33
2022-09-14T05:23:57.241Z,11.90
2022-09-14T05:26:25.869Z,10.93
2022-09-14T05:28:54.677Z,12.70
2022-09-14T05:31:23.939Z,13.43
2022-09-14T05:33:51.608Z,14.37
2022-09-14T05:36:18.769Z,12.83
2022-09-14T05:38:45.873Z,13.37
2022-09-14T05:41:14.273Z,12.70
2022-09-14T05:43:41.975Z,11.93
2022-09-14T05:46:15.058Z,13.40
2022-09-14T05:48:42.293Z,12.10
2022-09-14T05:51:20.668Z,13.40
2022-09-14T05:53:50.130Z,12.60
2022-09-14T05:56:18.238Z,12.13
2022-09-14T05:58:45.294Z,13.80
2022-09-14T06:01:16.671Z,14.47
2022-09-14T06:03:44.570Z,15.83
2022-09-14T06:06:16.040Z,14.40
2022-09-14T06:08:43.291Z,14.80
2022-09-14T06:11:16.236Z,16.00
2022-09-14T06:13:43.747Z,15.40
2022-09-14T06:16:13.394Z,16.33
2022-09-14T06:18:41.811Z,15.87
2022-09-14T06:21:09.694Z,14.27
2022-09-14T06:23:36.626Z,15.20
2022-09-14T06:26:05.056Z,15.97
2022-09-14T06:28:33.230Z,15.93
2022-09-14T06:31:00.438Z,15.80
2022-09-14T06:33:27.450Z,15.10
2022-09-14T06:35:55.665Z,15.47
2022-09-14T06:38:22.733Z,15.10
2022-09-14T06:41:01.081Z,15.60
2022-09-14T06:43:30.108Z,16.97
2022-09-14T06:46:02.324Z,17.40
2022-09-14T06:48:31.163Z,17.73
2022-09-14T06:50:58.446Z,17.10
2022-09-14T06:53:25.654Z,15.53
2022-09-14T06:55:52.918Z,16.37
2022-09-14T06:58:19.905Z,16.50
2022-09-14T07:00:46.733Z,16.47
2022-09-14T07:03:13.661Z,16.00
2022-09-14T07:05:40.497Z,15.87
2022-09-14T07:08:11.929Z,15.50
2022-09-14T07:10:39.311Z,15.90
2022-09-14T07:13:06.182Z,15.97
2022-09-14T07:15:33.428Z,17.10
2022-09-14T07:18:00.327Z,16.20
2022-09-14T07:20:27.115Z,16.40
2022-09-14T07:22:54.015Z,15.77
2022-09-14T07:25:20.823Z,17.50
2022-09-14T07:27:47.599Z,15.60
2022-09-14T07:30:14.498Z,15.23
2022-09-14T07:32:41.299Z,17.47
2022-09-14T07:35:08.621Z,17.13
2022-09-14T07:37:35.403Z,16.87
2022-09-14T07:40:02.429Z,14.30
2022-09-14T07:42:29.409Z,15.33
2022-09-14T07:44:56.214Z,17.00
2022-09-14T07:47:23.002Z,16.07
2022-09-14T07:49:49.834Z,15.53
2022-09-14T07:52:16.685Z,14.80
2022-09-14T07:54:43.461Z,13.63
2022-09-14T07:57:10.283Z,12.93
2022-09-14T07:59:37.771Z,12.80
2022-09-14T08:02:09.988Z,13.33
2022-09-14T08:04:39.377Z,11.00
2022-09-14T08:07:06.672Z,10.80
2022-09-14T08:09:34.099Z,10.97
2022-09-14T08:12:00.952Z,10.33
2022-09-14T08:14:27.846Z,9.53
2022-09-14T08:16:54.736Z,8.80
2022-09-14T08:19:21.889Z,8.27
2022-09-14T08:21:48.974Z,7.50
2022-09-14T08:24:21.014Z,9.10
2022-09-14T08:26:48.561Z,7.10
2022-09-14T08:29:16.991Z,9.27
2022-09-14T08:31:45.772Z,7.00
2022-09-14T08:34:13.502Z,7.77
2022-09-14T08:36:41.558Z,7.13
2022-09-14T08:39:10.868Z,6.70
2022-09-14T08:41:43.426Z,6.47
2022-09-14T08:44:41.797Z,6.10
2022-09-14T08:47:34.762Z,6.30
2022-09-14T08:50:17.713Z,7.00
2022-09-14T08:52:52.882Z,6.60
2022-09-14T08:55:24.558Z,6.80
2022-09-14T08:58:03.994Z,6.27
2022-09-14T09:00:51.056Z,5.97
2022-09-14T09:03:36.672Z,5.10
2022-09-14T09:06:22.535Z,5.20
2022-09-14T09:08:54.607Z,4.67
2022-09-14T09:11:24.586Z,5.70
2022-09-14T09:13:53.056Z,5.43
2022-09-14T09:16:24.093Z,5.43
2022-09-14T09:18:56.287Z,5.77
2022-09-14T09:21:28.911Z,5.20
2022-09-14T09:24:09.912Z,5.80
2022-09-14T09:26:36.734Z,5.90
2022-09-14T09:29:05.824Z,5.00
2022-09-14T09:31:39.849Z,5.10
2022-09-14T09:34:07.000Z,4.60
2022-09-14T09:36:39.330Z,6.20
2022-09-14T09:39:06.750Z,4.90
2022-09-14T09:42:13.766Z,4.80
2022-09-14T09:45:03.594Z,3.60
2022-09-14T09:47:39.276Z,3.57
2022-09-14T09:50:18.705Z,3.03
2022-09-14T09:52:57.844Z,3.17
2022-09-14T09:55:29.746Z,2.90
2022-09-14T09:57:56.572Z,2.50
2022-09-14T10:00:29.748Z,2.70
2022-09-14T10:03:01.423Z,2.93
2022-09-14T10:05:34.260Z,3.10
2022-09-14T10:08:11.198Z,3.53
2022-09-14T10:10:42.935Z,3.37
2022-09-14T10:13:38.169Z,3.30
2022-09-14T10:16:30.041Z,3.00
2022-09-14T10:18:59.347Z,3.00
2022-09-14T10:21:26.391Z,3.20
2022-09-14T10:24:15.051Z,2.60
2022-09-14T10:26:41.862Z,3.30
2022-09-14T10:29:21.414Z,2.70
2022-09-14T10:31:49.584Z,2.97
2022-09-14T10:34:20.397Z,2.20
2022-09-14T10:36:55.956Z,3.03
2022-09-14T10:39:40.832Z,3.23
2022-09-14T10:42:07.739Z,3.80
2022-09-14T10:44:37.324Z,2.20
2022-09-14T10:47:21.961Z,2.80
2022-09-14T10:49:58.079Z,2.77
2022-09-14T10:52:47.712Z,2.30
2022-09-14T10:55:36.980Z,2.27
2022-09-14T10:58:21.217Z,2.77
2022-09-14T11:01:01.866Z,2.40
2022-09-14T11:04:06.052Z,1.90
2022-09-14T11:06:53.529Z,2.10
2022-09-14T11:09:43.091Z,1.77
2022-09-14T11:12:29.184Z,1.70
2022-09-14T11:15:23.289Z,1.50
2022-09-14T11:17:56.665Z,1.80
2022-09-14T11:20:42.961Z,2.00
2022-09-14T11:23:39.490Z,2.10
2022-09-14T11:26:11.573Z,2.20
2022-09-14T11:28:44.413Z,2.33
2022-09-14T11:31:59.033Z,2.20
2022-09-14T11:34:42.256Z,2.40
2022-09-14T11:37:12.874Z,1.60
2022-09-14T11:39:58.676Z,1.40
2022-09-14T11:42:33.566Z,1.87
2022-09-14T11:45:06.923Z,2.07
2022-09-14T11:47:42.317Z,1.90
2022-09-14T11:50:25.423Z,1.50
2022-09-14T11:53:14.061Z,1.97
2022-09-14T11:55:50.170Z,1.53
2022-09-14T11:58:25.678Z,2.50
2022-09-14T12:00:52.490Z,1.87
2022-09-14T12:03:21.695Z,1.93
2022-09-14T12:05:50.001Z,2.03
2022-09-14T12:08:32.000Z,2.10
2022-09-14T12:10:59.705Z,2.10
2022-09-14T12:13:27.117Z,1.90
2022-09-14T12:16:08.669Z,1.93
2022-09-14T12:18:42.230Z,1.47
2022-09-14T12:21:25.877Z,1.93
2022-09-14T12:23:57.750Z,2.40
2022-09-14T12:26:31.072Z,2.00
2022-09-14T12:29:24.954Z,1.93
2022-09-14T12:31:51.693Z,2.20
2022-09-14T12:34:21.519Z,2.03
2022-09-14T12:36:48.319Z,2.30
2022-09-14T12:39:25.567Z,2.23
2022-09-14T12:41:52.323Z,2.50
2022-09-14T12:44:37.659Z,2.23
2022-09-14T12:47:28.545Z,2.30
2022-09-14T12:50:04.984Z,2.00
2022-09-14T12:53:04.360Z,1.93
2022-09-14T12:55:52.938Z,1.80
2022-09-14T12:58:38.009Z,1.93
2022-09-14T13:01:33.472Z,1.87
2022-09-14T13:04:00.671Z,2.00
2022-09-14T13:06:41.763Z,1.87
2022-09-14T13:09:20.453Z,1.90
2022-09-14T13:11:53.092Z,1.70
2022-09-14T13:14:22.851Z,1.57
2022-09-14T13:16:52.005Z,1.67
2022-09-14T13:19:25.053Z,1.70
2022-09-14T13:21:55.363Z,1.60
2022-09-14T13:24:45.813Z,1.57
2022-09-14T13:27:32.884Z,1.60
2022-09-14T13:30:05.775Z,1.80
2022-09-14T13:32:35.782Z,1.53
2022-09-14T13:35:05.614Z,1.73
2022-09-14T13:37:32.481Z,1.57
2022-09-14T13:40:00.026Z,2.20
2022-09-14T13:42:27.444Z,1.80
2022-09-14T13:44:54.502Z,1.40
2022-09-14T13:47:23.925Z,1.37
2022-09-14T13:49:52.961Z,1.40
2022-09-14T13:52:43.513Z,1.40
2022-09-14T13:55:29.362Z,1.40
2022-09-14T13:58:06.289Z,2.53
2022-09-14T14:00:45.479Z,1.20
2022-09-14T14:03:28.629Z,1.67
2022-09-14T14:05:56.022Z,1.73
2022-09-14T14:08:22.896Z,1.67
2022-09-14T14:10:51.443Z,1.83
2022-09-14T14:13:29.597Z,2.37
2022-09-14T14:16:20.690Z,1.40
2022-09-14T14:18:53.510Z,1.60
2022-09-14T14:21:23.152Z,1.70
2022-09-14T14:24:12.097Z,1.47
2022-09-14T14:26:47.137Z,1.83
2022-09-14T14:29:16.303Z,2.00
2022-09-14T14:31:43.930Z,1.83
2022-09-14T14:34:20.037Z,1.90
2022-09-14T14:36:49.936Z,1.97
2022-09-14T14:39:18.502Z,1.20
2022-09-14T14:41:46.248Z,1.50
2022-09-14T14:44:28.225Z,1.50
2022-09-14T14:46:56.282Z,1.83
2022-09-14T14:49:23.840Z,1.50
2022-09-14T14:51:51.238Z,1.50
2022-09-14T14:54:18.770Z,1.83
2022-09-14T14:56:47.818Z,1.50
2022-09-14T14:59:20.650Z,1.50
2022-09-14T15:01:48.394Z,1.30
2022-09-14T15:04:15.513Z,1.53
2022-09-14T15:06:42.385Z,1.90
2022-09-14T15:09:21.157Z,2.07
2022-09-14T15:11:48.905Z,1.30
2022-09-14T15:14:18.029Z,1.67
2022-09-14T15:16:45.590Z,1.43
2022-09-14T15:19:12.848Z,1.50
2022-09-14T15:21:41.576Z,1.90
2022-09-14T15:24:10.357Z,1.50
2022-09-14T15:26:37.784Z,1.60
2022-09-14T15:29:04.756Z,1.30
2022-09-14T15:31:31.860Z,1.77
2022-09-14T15:33:59.629Z,1.20
2022-09-14T15:36:51.128Z,1.50
2022-09-14T15:39:21.184Z,2.50
2022-09-14T15:41:47.968Z,1.70
2022-09-14T15:44:15.623Z,1.80
2022-09-14T15:46:44.593Z,1.67
2022-09-14T15:49:20.020Z,1.73
2022-09-14T15:51:48.749Z,1.70
2022-09-14T15:54:17.023Z,1.70
2022-09-14T15:56:49.569Z,1.67
2022-09-14T15:59:18.517Z,1.30
2022-09-14T16:01:45.685Z,2.10
2022-09-14T16:04:12.881Z,1.77
2022-09-14T16:06:40.330Z,1.67
2022-09-14T16:09:09.507Z,1.40
2022-09-14T16:11:37.600Z,1.50
2022-09-14T16:14:05.610Z,1.47
2022-09-14T16:16:34.124Z,2.00
2022-09-14T16:19:09.317Z,1.83
2022-09-14T16:21:36.529Z,1.63
2022-09-14T16:24:06.999Z,1.53
2022-09-14T16:26:36.712Z,1.63
2022-09-14T16:29:05.088Z,1.70
2022-09-14T16:31:34.526Z,1.60
2022-09-14T16:34:04.636Z,2.00
2022-09-14T16:36:34.748Z,2.20
2022-09-14T16:39:03.780Z,1.77
2022-09-14T16:41:31.204Z,2.37
2022-09-14T16:44:00.479Z,2.67
2022-09-14T16:46:29.345Z,1.30
2022-09-14T16:48:58.662Z,1.40
2022-09-14T16:51:29.323Z,1.90
2022-09-14T16:53:56.435Z,2.00
2022-09-14T16:56:29.643Z,1.63
2022-09-14T16:58:57.391Z,1.80
2022-09-14T17:01:38.991Z,1.40
2022-09-14T17:04:09.509Z,1.87
2022-09-14T17:06:38.993Z,2.33
2022-09-14T17:09:08.878Z,1.53
2022-09-14T17:11:38.290Z,1.53
2022-09-14T17:14:06.014Z,1.27
2022-09-14T17:16:33.272Z,1.83
2022-09-14T17:19:03.110Z,1.70
2022-09-14T17:21:34.818Z,1.60
2022-09-14T17:24:02.659Z,1.40
2022-09-14T17:26:29.518Z,2.33
2022-09-14T17:28:58.055Z,1.97
2022-09-14T17:31:27.966Z,2.37
2022-09-14T17:33:56.682Z,1.83
2022-09-14T17:36:24.725Z,1.77
2022-09-14T17:38:52.045Z,2.00
2022-09-14T17:41:22.036Z,1.90
2022-09-14T17:43:54.190Z,1.87
2022-09-14T17:46:22.582Z,2.40
2022-09-14T17:48:50.592Z,2.07
2022-09-14T17:51:20.602Z,1.77
2022-09-14T17:53:50.290Z,1.40
2022-09-14T17:56:20.210Z,1.73
2022-09-14T17:58:48.255Z,1.73
2022-09-14T18:01:21.339Z,1.77
2022-09-14T18:03:54.207Z,2.00
2022-09-14T18:06:23.906Z,1.83
2022-09-14T18:08:55.965Z,2.27
2022-09-14T18:11:23.458Z,1.60
2022-09-14T18:13:51.305Z,1.50
2022-09-14T18:16:20.961Z,1.63
2022-09-14T18:18:48.440Z,2.30
2022-09-14T18:21:17.011Z,2.10
2022-09-14T18:23:44.247Z,1.90
2022-09-14T18:26:11.218Z,2.17
2022-09-14T18:28:38.063Z,1.67
2022-09-14T18:31:09.258Z,1.90
2022-09-14T18:33:36.731Z,1.77
2022-09-14T18:36:06.334Z,2.27
2022-09-14T18:38:33.434Z,2.20
2022-09-14T18:41:08.047Z,2.70
2022-09-14T18:43:35.545Z,1.77
2022-09-14T18:46:07.063Z,2.80
2022-09-14T18:48:34.869Z,2.03
2022-09-14T18:51:02.953Z,2.33
2022-09-14T18:53:29.934Z,2.47
2022-09-14T18:56:05.378Z,2.40
2022-09-14T18:58:37.712Z,3.43
2022-09-14T19:01:05.716Z,2.40
2022-09-14T19:03:33.598Z,4.03
2022-09-14T19:06:09.168Z,2.30
2022-09-14T19:08:36.712Z,2.70
2022-09-14T19:11:11.959Z,2.90
2022-09-14T19:13:39.314Z,3.00
2022-09-14T19:16:18.823Z,2.70
2022-09-14T19:18:47.908Z,2.93
2022-09-14T19:21:26.246Z,2.30
2022-09-14T19:23:57.571Z,2.43
2022-09-14T19:26:24.510Z,2.90
2022-09-14T19:28:51.963Z,2.83
2022-09-14T19:31:22.013Z,2.47
2022-09-14T19:33:48.836Z,3.33
2022-09-14T19:36:19.883Z,3.00
2022-09-14T19:38:48.071Z,2.73
2022-09-14T19:41:15.414Z,2.50
2022-09-14T19:43:42.384Z,3.03
2022-09-14T19:46:13.520Z,3.33
2022-09-14T19:48:41.316Z,3.40
2022-09-14T19:51:14.637Z,3.13
2022-09-14T19:53:42.513Z,2.83
2022-09-14T19:56:12.787Z,2.60
2022-09-14T19:58:41.906Z,3.80
2022-09-14T20:01:09.105Z,4.00
2022-09-14T20:03:36.993Z,3.40
2022-09-14T20:06:09.658Z,3.20
2022-09-14T20:08:37.245Z,3.00
2022-09-14T20:11:15.589Z,3.33
2022-09-14T20:13:45.005Z,3.27
2022-09-14T20:16:17.810Z,3.50
2022-09-14T20:18:46.224Z,3.17
2022-09-14T20:21:15.756Z,3.57
2022-09-14T20:24:04.475Z,3.47
2022-09-14T20:26:30.400Z,3.73
2022-09-14T20:29:00.061Z,3.30
2022-09-14T20:31:28.464Z,3.60
2022-09-14T20:33:56.562Z,3.30
2022-09-14T20:36:25.340Z,3.30
2022-09-14T20:38:55.092Z,3.50
2022-09-14T20:41:24.280Z,3.50
2022-09-14T20:43:51.401Z,3.53
2022-09-14T20:46:21.038Z,3.60
2022-09-14T20:48:49.090Z,4.23
2022-09-14T20:51:20.676Z,3.80
2022-09-14T20:53:47.996Z,4.13
2022-09-14T20:56:18.314Z,4.23
2022-09-14T20:58:45.890Z,3.60
2022-09-14T21:01:17.337Z,4.00
2022-09-14T21:03:46.896Z,4.33
2022-09-14T21:06:22.599Z,3.67
2022-09-14T21:08:49.956Z,3.87
2022-09-14T21:11:24.398Z,4.50
2022-09-14T21:13:53.098Z,4.73
2022-09-14T21:16:22.725Z,4.47
2022-09-14T21:18:57.357Z,4.23
2022-09-14T21:21:25.039Z,4.10
2022-09-14T21:23:53.678Z,5.17
2022-09-14T21:26:20.574Z,4.20
2022-09-14T21:28:48.151Z,5.13
2022-09-14T21:31:21.733Z,4.00
2022-09-14T21:33:51.523Z,5.10
2022-09-14T21:36:18.418Z,5.10
2022-09-14T21:38:50.017Z,4.90
2022-09-14T21:41:18.935Z,6.03
2022-09-14T21:43:46.044Z,5.43
2022-09-14T21:46:13.880Z,5.80
2022-09-14T21:48:40.871Z,5.43
2022-09-14T21:51:21.170Z,5.17
2022-09-14T21:53:59.410Z,5.20
2022-09-14T21:56:28.807Z,5.27
2022-09-14T21:59:00.859Z,5.33
2022-09-14T22:01:28.462Z,5.70
2022-09-14T22:03:56.055Z,6.13
2022-09-14T22:06:27.421Z,5.80
2022-09-14T22:08:55.161Z,5.70
2022-09-14T22:11:24.455Z,6.13
2022-09-14T22:13:55.769Z,6.33
2022-09-14T22:16:24.306Z,4.90
2022-09-14T22:18:59.410Z,5.47
2022-09-14T22:21:28.827Z,6.27
2022-09-14T22:23:58.082Z,5.33
2022-09-14T22:26:26.045Z,5.30
2022-09-14T22:28:54.069Z,6.40
2022-09-14T22:31:22.651Z,5.93
2022-09-14T22:33:51.151Z,5.50
2022-09-14T22:36:18.173Z,6.20
2022-09-14T22:38:45.751Z,5.70
2022-09-14T22:41:18.224Z,5.90
2022-09-14T22:43:45.663Z,5.17
2022-09-14T22:46:13.659Z,5.17
2022-09-14T22:48:40.835Z,6.20
2022-09-14T22:51:11.348Z,6.13
2022-09-14T22:53:38.585Z,5.03
2022-09-14T22:56:09.449Z,6.03
2022-09-14T22:58:36.453Z,5.40
2022-09-14T23:01:08.249Z,5.43
2022-09-14T23:03:35.764Z,6.17
2022-09-14T23:06:03.743Z,4.93
2022-09-14T23:08:30.896Z,5.57
2022-09-14T23:11:02.092Z,5.80
2022-09-14T23:13:29.014Z,6.40
2022-09-14T23:15:56.594Z,6.50
2022-09-14T23:18:23.364Z,5.97
2022-09-14T23:20:50.148Z,6.80
2022-09-14T23:23:16.971Z,6.37
2022-09-14T23:25:43.734Z,6.80
2022-09-14T23:28:12.655Z,6.37
2022-09-14T23:30:39.898Z,6.50
2022-09-14T23:33:06.841Z,6.77
2022-09-14T23:35:37.023Z,6.27
2022-09-14T23:38:04.687Z,6.13
2022-09-14T23:40:31.517Z,6.10
2022-09-14T23:42:58.533Z,6.43
2022-09-14T23:45:25.450Z,6.33
2022-09-14T23:47:52.247Z,6.07
2022-09-14T23:50:19.075Z,7.13
2022-09-14T23:52:46.373Z,6.40
2022-09-14T23:55:13.580Z,6.40
2022-09-14T23:57:40.349Z,6.50
